Startpagina
METAR-TAF:

METAR-TAF

Vliegvelden :

Aéroport de Lille-Lesquin

Rijsel, Frankrijk

breedte: 50-34N, lengte: 003-06E, hoogte: 48 m

Actueel weer

Dit bericht is 11 minuten geleden gemaakt, om 16:00 UTC
Wind 8 kt uit het noordoosten, variërend tussen het noordnoordoosten en het oosten
Temperatuur 22°C
Vochtigheid 38%
Druk 1018 hPa
Zicht 10 km of meer
geen wolken onder 1500 m en geen cumulonimbus

METAR: LFQQ 201600Z AUTO 04008KT 020V080 CAVOK 22/07 Q1018 NOSIG

Tijdstip: 18:11 (16:11 UTC)

Verwachting

Dit bericht is 5 uur en het 11 minuten geleden gemaakt, om 11:00 UTC
Verwachting geldig van 20 om 12 UTC tot 21 om 18 UTC
Wind 10 kt uit het noordnoordoosten
Zicht 10 km of meer
geen wolken onder 1500 m en geen cumulonimbus
Tijdelijke
van 20 om 18 UTC tot 20 om 21 UTC
Gebroken wolken op 6000 ft, Cumulonimbus.
Tijdelijke
van 21 om 12 UTC tot 21 om 18 UTC
Zicht: 3000 m
Gebroken wolken op 4000 ft, Cumulonimbus.
regenbuien

TAF: LFQQ 201100Z 2012/2118 03010KT CAVOK TEMPO 2018/2021 BKN060CB TEMPO 2112/2118 3000 SHRA BKN040CB

Waarnemingen en weersverwachtingen van meer dan 4000 vliegvelden (METAR en TAF).

De beschikbare stations zijn de gele en rode punten op de kaart.

Ga met uw muis naar het station om de naam te zien.

Klik dan om waarnemingen en weersverwachtingen te zien.

kaart wijzigen: klik op de groene knoppen met een zwart kruis om in te zoomen, op de groene knop met een streepje om uit te zoomen of op de groene pijlen voor aangrenzende kaarten.


METAR-TAF: